LGKR

Details ICAO LGKR (CFU)
Name IOANNIS KAPODISTRIAS INTL
Region Greece
Timezone Europe/Athens (UTC+3.0)
Plans Departing 1917
Arriving 2903
Stats Elevation 0 ft / 0 m (AMSL)
Location 39.602300° 19.912000°
Runways 1
Magnetic Variation 4.383° E
Sunrise 2020-10-22 04:59:05 UTC / 2020-10-22 07:59:05 Local
Sunset 2020-10-22 15:52:47 UTC / 2020-10-22 18:52:47 Local
Advertisement - Login to hide

Runways

ID Width Length Bearing (true/mag) Surface Threshold Overrun Markings Lighting
17 148 ft / 45 m 7,604 ft / 2,318 m 168.78° / 164.40° ASPHALT 1,342 ft / 409 m 0 ft / 0 m PREC-APP EDGE THRESHOLD ALSF-I
35 148 ft / 45 m 7,604 ft / 2,318 m 348.79° / 344.40° ASPHALT 0 ft / 0 m 0 ft / 0 m PREC-APP EDGE THRESHOLD SALS REIL-OMNI

Map

Weather


0- 5 10 15 20 25 30 35+ Temperature / °C

Clouds and Precipitation
Forecast for 2020-10-22 06:00 UTC. Updated 4 hours ago

Ground ~20,000 ft ~40,000 ft Winds

METAR

LGKR 220650Z 00000KT CAVOK 16/12 Q1023 NOSIG

TAF

TAF LGKR 220500Z 2206/2306 VRB05KT 9999 FEW020

Frequencies

Ground 121.70 MHz KERKIRA GND
Recorded 126.35 MHz ATIS
Tower 120.85 MHz KERKIRA TWR
Clearance 120.85 MHz KERKIRA CLD
Approach 122.10 MHz KERKIRA APP
Approach 122.35 MHz KERKIRA APP
Warning: Do not use this data for real-world aviation or navigation. No guarantee of current accuracy is given.